sensor_id;sensor_type;location;lat;lon;timestamp;pressure;altitude;pressure_sealevel;temperature;humidity
41703;BME280;861;48.808;9.006;2023-06-22T00:00:00;97126.59;;;23.81;73.43
41703;BME280;861;48.808;9.006;2023-06-22T00:02:34;97137.72;;;23.81;74.55
41703;BME280;861;48.808;9.006;2023-06-22T00:05:00;97136.97;;;23.81;73.67
41703;BME280;861;48.808;9.006;2023-06-22T00:07:27;97128.91;;;23.83;74.14
41703;BME280;861;48.808;9.006;2023-06-22T00:09:53;97124.75;;;23.78;73.64
41703;BME280;861;48.808;9.006;2023-06-22T00:12:20;97126.47;;;23.76;74.21
41703;BME280;861;48.808;9.006;2023-06-22T00:14:47;97128.00;;;23.77;74.11
41703;BME280;861;48.808;9.006;2023-06-22T00:17:13;97141.91;;;23.77;74.15
41703;BME280;861;48.808;9.006;2023-06-22T00:19:40;97143.81;;;23.71;74.26
41703;BME280;861;48.808;9.006;2023-06-22T00:22:07;97137.19;;;23.68;74.69
41703;BME280;861;48.808;9.006;2023-06-22T00:24:33;97145.81;;;23.70;74.70
41703;BME280;861;48.808;9.006;2023-06-22T00:27:00;97137.00;;;23.72;74.65
41703;BME280;861;48.808;9.006;2023-06-22T00:29:26;97139.97;;;23.68;74.59
41703;BME280;861;48.808;9.006;2023-06-22T00:31:53;97139.97;;;23.68;74.31
41703;BME280;861;48.808;9.006;2023-06-22T00:34:19;97132.69;;;23.71;74.63
41703;BME280;861;48.808;9.006;2023-06-22T00:36:46;97120.50;;;23.68;74.50
41703;BME280;861;48.808;9.006;2023-06-22T00:39:14;97120.03;;;23.61;74.31
41703;BME280;861;48.808;9.006;2023-06-22T00:41:40;97138.28;;;23.53;75.02
41703;BME280;861;48.808;9.006;2023-06-22T00:44:07;97164.75;;;23.21;74.58
41703;BME280;861;48.808;9.006;2023-06-22T00:46:35;97157.06;;;23.25;74.92
41703;BME280;861;48.808;9.006;2023-06-22T00:49:02;97144.09;;;23.04;76.94
41703;BME280;861;48.808;9.006;2023-06-22T00:51:31;97151.50;;;23.07;76.62
41703;BME280;861;48.808;9.006;2023-06-22T00:53:58;97189.63;;;22.89;77.43
41703;BME280;861;48.808;9.006;2023-06-22T00:56:25;97215.81;;;22.51;76.86
41703;BME280;861;48.808;9.006;2023-06-22T00:58:54;97204.19;;;22.44;77.72
41703;BME280;861;48.808;9.006;2023-06-22T01:01:21;97195.72;;;22.38;78.50
41703;BME280;861;48.808;9.006;2023-06-22T01:03:50;97203.44;;;22.43;78.46
41703;BME280;861;48.808;9.006;2023-06-22T01:06:29;97185.41;;;22.48;78.49
41703;BME280;861;48.808;9.006;2023-06-22T01:09:17;97187.72;;;22.49;78.36
41703;BME280;861;48.808;9.006;2023-06-22T01:12:02;97180.06;;;22.62;77.71
41703;BME280;861;48.808;9.006;2023-06-22T01:14:43;97160.75;;;22.68;77.92
41703;BME280;861;48.808;9.006;2023-06-22T01:17:18;97160.16;;;22.73;77.38
41703;BME280;861;48.808;9.006;2023-06-22T01:19:50;97157.22;;;22.77;77.66
41703;BME280;861;48.808;9.006;2023-06-22T01:22:30;97150.59;;;22.74;77.94
41703;BME280;861;48.808;9.006;2023-06-22T01:25:19;97141.66;;;22.70;78.30
41703;BME280;861;48.808;9.006;2023-06-22T01:27:56;97143.34;;;22.77;78.07
41703;BME280;861;48.808;9.006;2023-06-22T01:30:32;97151.22;;;22.78;77.98
41703;BME280;861;48.808;9.006;2023-06-22T01:33:03;97149.19;;;22.69;78.24
41703;BME280;861;48.808;9.006;2023-06-22T01:35:33;97152.25;;;22.53;78.50
41703;BME280;861;48.808;9.006;2023-06-22T01:38:00;97147.03;;;22.55;78.75
41703;BME280;861;48.808;9.006;2023-06-22T01:40:30;97148.28;;;22.63;78.63
41703;BME280;861;48.808;9.006;2023-06-22T01:43:01;97158.59;;;22.63;78.47
41703;BME280;861;48.808;9.006;2023-06-22T01:45:29;97152.59;;;22.64;78.36
41703;BME280;861;48.808;9.006;2023-06-22T01:47:57;97151.84;;;22.64;78.29
41703;BME280;861;48.808;9.006;2023-06-22T01:50:24;97163.69;;;22.64;78.29
41703;BME280;861;48.808;9.006;2023-06-22T01:52:51;97159.69;;;22.56;78.78
41703;BME280;861;48.808;9.006;2023-06-22T01:55:18;97154.41;;;22.49;78.93
41703;BME280;861;48.808;9.006;2023-06-22T01:57:44;97162.00;;;22.58;78.61
41703;BME280;861;48.808;9.006;2023-06-22T02:00:20;97160.31;;;22.60;78.59
41703;BME280;861;48.808;9.006;2023-06-22T02:02:59;97171.25;;;22.64;78.00
41703;BME280;861;48.808;9.006;2023-06-22T02:05:42;97173.88;;;22.58;78.47
41703;BME280;861;48.808;9.006;2023-06-22T02:08:25;97173.38;;;22.51;78.53
41703;BME280;861;48.808;9.006;2023-06-22T02:10:59;97160.72;;;22.50;78.48
41703;BME280;861;48.808;9.006;2023-06-22T02:13:28;97166.16;;;22.53;78.75
41703;BME280;861;48.808;9.006;2023-06-22T02:15:55;97169.19;;;22.46;78.89
41703;BME280;861;48.808;9.006;2023-06-22T02:18:22;97173.03;;;22.40;78.67
41703;BME280;861;48.808;9.006;2023-06-22T02:20:49;97169.94;;;22.29;79.38
41703;BME280;861;48.808;9.006;2023-06-22T02:23:15;97164.84;;;22.36;79.20
41703;BME280;861;48.808;9.006;2023-06-22T02:25:42;97160.41;;;22.39;79.17
41703;BME280;861;48.808;9.006;2023-06-22T02:28:10;97157.63;;;22.39;79.24
41703;BME280;861;48.808;9.006;2023-06-22T02:30:37;97140.66;;;22.37;78.98
41703;BME280;861;48.808;9.006;2023-06-22T02:33:03;97144.31;;;22.16;79.98
41703;BME280;861;48.808;9.006;2023-06-22T02:35:31;97137.22;;;22.15;80.48
41703;BME280;861;48.808;9.006;2023-06-22T02:37:59;97128.78;;;22.18;80.44
41703;BME280;861;48.808;9.006;2023-06-22T02:40:27;97128.59;;;22.22;80.10
41703;BME280;861;48.808;9.006;2023-06-22T02:42:56;97140.34;;;22.26;79.67
41703;BME280;861;48.808;9.006;2023-06-22T02:45:28;97146.63;;;22.17;80.41
41703;BME280;861;48.808;9.006;2023-06-22T02:51:46;97128.44;;;22.16;80.25
41703;BME280;861;48.808;9.006;2023-06-22T02:54:14;97137.25;;;22.24;79.59
41703;BME280;861;48.808;9.006;2023-06-22T02:56:41;97128.44;;;22.16;79.35
41703;BME280;861;48.808;9.006;2023-06-22T02:59:10;97143.53;;;22.06;78.77
41703;BME280;861;48.808;9.006;2023-06-22T03:01:38;97138.53;;;21.92;79.29
41703;BME280;861;48.808;9.006;2023-06-22T03:04:10;97132.53;;;21.94;80.24
41703;BME280;861;48.808;9.006;2023-06-22T03:06:37;97128.97;;;21.84;80.69
41703;BME280;861;48.808;9.006;2023-06-22T03:09:05;97129.63;;;21.88;80.49
41703;BME280;861;48.808;9.006;2023-06-22T03:11:34;97124.41;;;21.90;80.56
41703;BME280;861;48.808;9.006;2023-06-22T03:14:02;97125.31;;;21.96;80.40
41703;BME280;861;48.808;9.006;2023-06-22T03:16:28;97124.69;;;21.92;80.68
41703;BME280;861;48.808;9.006;2023-06-22T03:18:55;97124.97;;;21.85;81.14
41703;BME280;861;48.808;9.006;2023-06-22T03:21:28;97128.22;;;21.84;81.40
41703;BME280;861;48.808;9.006;2023-06-22T03:23:55;97120.34;;;21.82;81.06
41703;BME280;861;48.808;9.006;2023-06-22T03:26:22;97118.19;;;21.86;80.39
41703;BME280;861;48.808;9.006;2023-06-22T03:28:50;97114.97;;;21.88;80.25
41703;BME280;861;48.808;9.006;2023-06-22T03:31:16;97113.91;;;21.85;80.86
41703;BME280;861;48.808;9.006;2023-06-22T03:33:49;97114.03;;;21.82;81.04
41703;BME280;861;48.808;9.006;2023-06-22T03:36:19;97121.50;;;21.72;81.40
41703;BME280;861;48.808;9.006;2023-06-22T03:38:48;97111.22;;;21.73;81.45
41703;BME280;861;48.808;9.006;2023-06-22T03:41:16;97111.97;;;21.73;81.75
41703;BME280;861;48.808;9.006;2023-06-22T03:43:42;97109.81;;;21.68;81.75
41703;BME280;861;48.808;9.006;2023-06-22T03:46:09;97109.00;;;21.59;82.50
41703;BME280;861;48.808;9.006;2023-06-22T03:48:36;97101.50;;;21.68;82.30
41703;BME280;861;48.808;9.006;2023-06-22T03:51:03;97110.88;;;21.71;81.54
41703;BME280;861;48.808;9.006;2023-06-22T03:53:30;97110.31;;;21.76;81.12
41703;BME280;861;48.808;9.006;2023-06-22T03:55:57;97107.41;;;21.79;80.87
41703;BME280;861;48.808;9.006;2023-06-22T03:58:23;97105.84;;;21.78;80.90
41703;BME280;861;48.808;9.006;2023-06-22T04:00:52;97103.41;;;21.80;80.95
41703;BME280;861;48.808;9.006;2023-06-22T04:03:20;97104.06;;;21.63;82.25
41703;BME280;861;48.808;9.006;2023-06-22T04:05:47;97099.47;;;21.69;82.03
41703;BME280;861;48.808;9.006;2023-06-22T04:08:15;97105.66;;;21.73;81.76
41703;BME280;861;48.808;9.006;2023-06-22T04:10:42;97107.97;;;21.74;81.42
41703;BME280;861;48.808;9.006;2023-06-22T04:13:09;97102.56;;;21.71;81.82
41703;BME280;861;48.808;9.006;2023-06-22T04:15:35;97096.25;;;21.70;81.97
41703;BME280;861;48.808;9.006;2023-06-22T04:18:02;97102.84;;;21.64;82.81
41703;BME280;861;48.808;9.006;2023-06-22T04:20:30;97095.72;;;21.54;83.40
41703;BME280;861;48.808;9.006;2023-06-22T04:22:57;97085.31;;;21.67;82.78
41703;BME280;861;48.808;9.006;2023-06-22T04:25:24;97084.09;;;21.68;82.91
41703;BME280;861;48.808;9.006;2023-06-22T04:27:50;97087.63;;;21.68;83.01
41703;BME280;861;48.808;9.006;2023-06-22T04:30:17;97089.91;;;21.61;83.42
41703;BME280;861;48.808;9.006;2023-06-22T04:32:45;97084.88;;;21.68;83.57
41703;BME280;861;48.808;9.006;2023-06-22T04:35:24;97082.91;;;21.78;82.88
41703;BME280;861;48.808;9.006;2023-06-22T04:37:52;97085.53;;;21.81;82.96
41703;BME280;861;48.808;9.006;2023-06-22T04:40:24;97082.91;;;21.78;83.04
41703;BME280;861;48.808;9.006;2023-06-22T04:42:51;97079.56;;;21.92;82.55
41703;BME280;861;48.808;9.006;2023-06-22T04:45:21;97077.53;;;21.92;82.28
41703;BME280;861;48.808;9.006;2023-06-22T04:47:48;97072.78;;;21.93;82.43
41703;BME280;861;48.808;9.006;2023-06-22T04:50:15;97062.59;;;21.90;82.84
41703;BME280;861;48.808;9.006;2023-06-22T04:52:43;97062.97;;;21.70;83.68
41703;BME280;861;48.808;9.006;2023-06-22T04:55:09;97062.50;;;21.63;84.68
41703;BME280;861;48.808;9.006;2023-06-22T04:57:36;97059.59;;;21.66;84.27
41703;BME280;861;48.808;9.006;2023-06-22T05:00:06;97055.94;;;21.78;83.73
41703;BME280;861;48.808;9.006;2023-06-22T05:02:40;97060.63;;;21.90;83.21
41703;BME280;861;48.808;9.006;2023-06-22T05:05:07;97064.59;;;21.98;82.77
41703;BME280;861;48.808;9.006;2023-06-22T05:07:35;97065.41;;;22.08;82.45
41703;BME280;861;48.808;9.006;2023-06-22T05:10:04;97062.63;;;21.99;82.82
41703;BME280;861;48.808;9.006;2023-06-22T05:12:31;97056.13;;;21.93;83.28
41703;BME280;861;48.808;9.006;2023-06-22T05:14:57;97058.78;;;22.05;83.01
41703;BME280;861;48.808;9.006;2023-06-22T05:17:25;97057.09;;;22.17;82.49
41703;BME280;861;48.808;9.006;2023-06-22T05:19:52;97055.09;;;22.26;81.94
41703;BME280;861;48.808;9.006;2023-06-22T05:22:18;97054.31;;;22.44;81.35
41703;BME280;861;48.808;9.006;2023-06-22T05:24:45;97045.56;;;22.54;80.33
41703;BME280;861;48.808;9.006;2023-06-22T05:27:13;97041.22;;;22.53;80.94
41703;BME280;861;48.808;9.006;2023-06-22T05:29:40;97040.78;;;22.64;80.01
41703;BME280;861;48.808;9.006;2023-06-22T05:32:09;97043.25;;;22.62;80.67
41703;BME280;861;48.808;9.006;2023-06-22T05:34:36;97044.63;;;22.66;80.62
41703;BME280;861;48.808;9.006;2023-06-22T05:37:03;97039.22;;;22.81;79.89
41703;BME280;861;48.808;9.006;2023-06-22T05:39:30;97044.09;;;22.95;78.97
41703;BME280;861;48.808;9.006;2023-06-22T05:41:57;97035.94;;;23.01;79.20
41703;BME280;861;48.808;9.006;2023-06-22T05:44:23;97046.41;;;22.97;78.84
41703;BME280;861;48.808;9.006;2023-06-22T05:46:50;97042.88;;;22.96;78.89
41703;BME280;861;48.808;9.006;2023-06-22T05:49:16;97049.66;;;22.95;79.36
41703;BME280;861;48.808;9.006;2023-06-22T05:51:43;97041.66;;;22.97;78.86
41703;BME280;861;48.808;9.006;2023-06-22T05:54:09;97037.94;;;23.00;78.58
41703;BME280;861;48.808;9.006;2023-06-22T05:56:36;97037.63;;;22.98;78.71
41703;BME280;861;48.808;9.006;2023-06-22T05:59:03;97041.03;;;23.02;78.85
41703;BME280;861;48.808;9.006;2023-06-22T06:01:30;97048.69;;;23.07;78.70
41703;BME280;861;48.808;9.006;2023-06-22T06:04:02;97043.13;;;23.07;78.30
41703;BME280;861;48.808;9.006;2023-06-22T06:06:30;97040.88;;;22.97;78.76
41703;BME280;861;48.808;9.006;2023-06-22T06:08:57;97038.25;;;23.02;78.76
41703;BME280;861;48.808;9.006;2023-06-22T06:11:24;97043.59;;;23.15;78.08
41703;BME280;861;48.808;9.006;2023-06-22T06:13:52;97030.94;;;23.14;78.25
41703;BME280;861;48.808;9.006;2023-06-22T06:16:18;97038.63;;;23.28;77.43
41703;BME280;861;48.808;9.006;2023-06-22T06:18:45;97021.78;;;23.31;77.32
41703;BME280;861;48.808;9.006;2023-06-22T06:21:11;97028.56;;;23.39;76.64
41703;BME280;861;48.808;9.006;2023-06-22T06:23:38;97037.06;;;23.36;77.33
41703;BME280;861;48.808;9.006;2023-06-22T06:26:04;97032.84;;;23.40;76.29
41703;BME280;861;48.808;9.006;2023-06-22T06:28:34;97033.44;;;23.53;76.29
41703;BME280;861;48.808;9.006;2023-06-22T06:31:01;97039.16;;;23.50;76.22
41703;BME280;861;48.808;9.006;2023-06-22T06:33:27;97039.41;;;23.61;75.95
41703;BME280;861;48.808;9.006;2023-06-22T06:35:54;97035.97;;;23.66;74.46
41703;BME280;861;48.808;9.006;2023-06-22T06:38:22;97038.13;;;23.71;74.69
41703;BME280;861;48.808;9.006;2023-06-22T06:40:48;97044.72;;;23.82;73.98
41703;BME280;861;48.808;9.006;2023-06-22T06:43:15;97043.94;;;23.82;74.72
41703;BME280;861;48.808;9.006;2023-06-22T06:45:41;97051.75;;;23.92;74.40
41703;BME280;861;48.808;9.006;2023-06-22T06:48:08;97052.19;;;24.00;73.91
41703;BME280;861;48.808;9.006;2023-06-22T06:50:35;97051.97;;;24.13;73.45
41703;BME280;861;48.808;9.006;2023-06-22T06:53:02;97046.50;;;24.18;72.95
41703;BME280;861;48.808;9.006;2023-06-22T06:55:28;97036.47;;;24.35;72.59
41703;BME280;861;48.808;9.006;2023-06-22T06:57:59;97045.16;;;24.52;72.27
41703;BME280;861;48.808;9.006;2023-06-22T07:00:26;97034.19;;;24.48;71.75
41703;BME280;861;48.808;9.006;2023-06-22T07:02:53;97032.09;;;24.58;71.98
41703;BME280;861;48.808;9.006;2023-06-22T07:05:20;97031.72;;;24.65;71.59
41703;BME280;861;48.808;9.006;2023-06-22T07:07:47;97016.31;;;24.78;71.00
41703;BME280;861;48.808;9.006;2023-06-22T07:10:13;97009.31;;;24.83;70.78
41703;BME280;861;48.808;9.006;2023-06-22T07:12:41;97021.13;;;24.92;70.68
41703;BME280;861;48.808;9.006;2023-06-22T07:15:10;97023.13;;;25.06;69.96
41703;BME280;861;48.808;9.006;2023-06-22T07:17:39;97016.03;;;25.05;70.04
41703;BME280;861;48.808;9.006;2023-06-22T07:20:10;97011.59;;;25.13;70.09
41703;BME280;861;48.808;9.006;2023-06-22T07:22:45;97003.31;;;25.19;69.92
41703;BME280;861;48.808;9.006;2023-06-22T07:25:12;96998.03;;;25.21;69.79
41703;BME280;861;48.808;9.006;2023-06-22T07:27:58;96999.56;;;25.36;69.88
41703;BME280;861;48.808;9.006;2023-06-22T07:30:31;97001.00;;;25.46;69.38
41703;BME280;861;48.808;9.006;2023-06-22T07:32:59;96997.47;;;25.66;67.81
41703;BME280;861;48.808;9.006;2023-06-22T07:35:31;96985.53;;;25.66;68.21
41703;BME280;861;48.808;9.006;2023-06-22T07:37:58;96971.09;;;25.67;67.91
41703;BME280;861;48.808;9.006;2023-06-22T07:40:25;96977.53;;;25.73;67.88
41703;BME280;861;48.808;9.006;2023-06-22T07:42:51;96978.28;;;25.74;68.20
41703;BME280;861;48.808;9.006;2023-06-22T07:45:19;96973.09;;;25.81;67.84
41703;BME280;861;48.808;9.006;2023-06-22T07:47:47;96971.13;;;25.87;66.68
41703;BME280;861;48.808;9.006;2023-06-22T07:50:13;96966.16;;;25.97;66.88
41703;BME280;861;48.808;9.006;2023-06-22T07:52:40;96960.03;;;26.13;66.87
41703;BME280;861;48.808;9.006;2023-06-22T07:55:06;96967.78;;;26.23;66.88
41703;BME280;861;48.808;9.006;2023-06-22T07:57:33;96972.91;;;26.50;64.41
41703;BME280;861;48.808;9.006;2023-06-22T08:00:01;96988.31;;;26.46;64.83
41703;BME280;861;48.808;9.006;2023-06-22T08:02:48;96996.41;;;26.64;65.19
41703;BME280;861;48.808;9.006;2023-06-22T08:05:16;96989.75;;;26.81;64.76
41703;BME280;861;48.808;9.006;2023-06-22T08:07:43;96999.22;;;26.89;64.74
41703;BME280;861;48.808;9.006;2023-06-22T08:10:14;97008.03;;;27.14;62.27
41703;BME280;861;48.808;9.006;2023-06-22T08:12:42;97014.47;;;27.20;63.73
41703;BME280;861;48.808;9.006;2023-06-22T08:15:09;97008.44;;;27.27;63.26
41703;BME280;861;48.808;9.006;2023-06-22T08:17:38;97010.66;;;27.48;61.96
41703;BME280;861;48.808;9.006;2023-06-22T08:20:06;97016.97;;;27.43;62.98
41703;BME280;861;48.808;9.006;2023-06-22T08:22:42;97019.69;;;27.32;62.82
41703;BME280;861;48.808;9.006;2023-06-22T08:25:10;97027.38;;;27.37;62.53
41703;BME280;861;48.808;9.006;2023-06-22T08:27:37;97020.44;;;27.33;63.02
41703;BME280;861;48.808;9.006;2023-06-22T08:30:05;97020.59;;;27.24;62.72
41703;BME280;861;48.808;9.006;2023-06-22T08:32:33;97017.50;;;27.16;62.14
41703;BME280;861;48.808;9.006;2023-06-22T08:35:00;97010.75;;;27.02;62.80
41703;BME280;861;48.808;9.006;2023-06-22T08:37:27;97008.44;;;27.01;63.12
41703;BME280;861;48.808;9.006;2023-06-22T08:39:59;97015.03;;;26.98;63.64
41703;BME280;861;48.808;9.006;2023-06-22T08:42:28;97006.88;;;26.94;63.44
41703;BME280;861;48.808;9.006;2023-06-22T08:44:55;97008.13;;;26.93;64.23
41703;BME280;861;48.808;9.006;2023-06-22T08:47:21;97001.81;;;26.98;63.06
41703;BME280;861;48.808;9.006;2023-06-22T08:49:49;97005.09;;;27.23;63.55
41703;BME280;861;48.808;9.006;2023-06-22T08:52:19;97000.53;;;27.25;62.11
41703;BME280;861;48.808;9.006;2023-06-22T08:54:49;96996.59;;;27.37;61.27
41703;BME280;861;48.808;9.006;2023-06-22T08:57:17;97007.81;;;27.43;61.12
41703;BME280;861;48.808;9.006;2023-06-22T08:59:44;97007.38;;;27.55;60.93
41703;BME280;861;48.808;9.006;2023-06-22T09:02:10;97028.63;;;27.73;61.45
41703;BME280;861;48.808;9.006;2023-06-22T09:04:37;97035.66;;;27.94;61.78
41703;BME280;861;48.808;9.006;2023-06-22T09:07:04;97018.91;;;28.05;60.20
41703;BME280;861;48.808;9.006;2023-06-22T09:09:30;97016.16;;;28.21;59.71
41703;BME280;861;48.808;9.006;2023-06-22T09:11:57;97018.59;;;28.51;58.29
41703;BME280;861;48.808;9.006;2023-06-22T09:14:24;97021.59;;;28.36;59.49
41703;BME280;861;48.808;9.006;2023-06-22T09:16:51;97007.81;;;28.32;60.30
41703;BME280;861;48.808;9.006;2023-06-22T09:19:17;97003.25;;;28.40;59.59
41703;BME280;861;48.808;9.006;2023-06-22T09:21:44;96993.63;;;28.53;61.47
41703;BME280;861;48.808;9.006;2023-06-22T09:24:10;96987.56;;;28.76;59.43
41703;BME280;861;48.808;9.006;2023-06-22T09:26:37;96975.34;;;28.90;59.51
41703;BME280;861;48.808;9.006;2023-06-22T09:29:06;96963.91;;;29.21;57.35
41703;BME280;861;48.808;9.006;2023-06-22T09:31:33;96961.31;;;29.51;58.93
41703;BME280;861;48.808;9.006;2023-06-22T09:33:59;96965.91;;;29.65;56.94
41703;BME280;861;48.808;9.006;2023-06-22T09:36:26;96961.00;;;29.88;56.66
41703;BME280;861;48.808;9.006;2023-06-22T09:38:52;96964.88;;;29.73;55.85
41703;BME280;861;48.808;9.006;2023-06-22T09:41:21;96952.09;;;29.78;56.54
41703;BME280;861;48.808;9.006;2023-06-22T09:43:48;96941.81;;;29.97;56.30
41703;BME280;861;48.808;9.006;2023-06-22T09:46:18;96941.84;;;29.86;55.89
41703;BME280;861;48.808;9.006;2023-06-22T09:48:47;96928.63;;;29.64;55.49
41703;BME280;861;48.808;9.006;2023-06-22T09:51:13;96931.66;;;29.77;56.77
41703;BME280;861;48.808;9.006;2023-06-22T09:53:40;96931.63;;;29.88;57.27
41703;BME280;861;48.808;9.006;2023-06-22T09:56:07;96928.25;;;30.01;57.00
41703;BME280;861;48.808;9.006;2023-06-22T09:58:33;96916.94;;;30.23;56.29
41703;BME280;861;48.808;9.006;2023-06-22T10:01:00;96915.34;;;30.33;55.11
41703;BME280;861;48.808;9.006;2023-06-22T10:03:26;96918.97;;;30.28;55.28
41703;BME280;861;48.808;9.006;2023-06-22T10:05:53;96922.50;;;30.34;54.62
41703;BME280;861;48.808;9.006;2023-06-22T10:08:19;96920.50;;;30.24;54.60
41703;BME280;861;48.808;9.006;2023-06-22T10:10:46;96914.31;;;30.31;56.16
41703;BME280;861;48.808;9.006;2023-06-22T10:13:13;96908.09;;;30.49;55.27
41703;BME280;861;48.808;9.006;2023-06-22T10:15:39;96915.72;;;30.89;54.52
41703;BME280;861;48.808;9.006;2023-06-22T10:18:06;96913.84;;;31.02;53.98
41703;BME280;861;48.808;9.006;2023-06-22T10:20:33;96918.31;;;31.16;52.69
41703;BME280;861;48.808;9.006;2023-06-22T10:23:00;96912.78;;;31.05;54.09
41703;BME280;861;48.808;9.006;2023-06-22T10:25:27;96902.13;;;31.22;54.36
41703;BME280;861;48.808;9.006;2023-06-22T10:27:54;96886.69;;;31.59;54.56
41703;BME280;861;48.808;9.006;2023-06-22T10:30:21;96899.56;;;31.73;52.17
41703;BME280;861;48.808;9.006;2023-06-22T10:32:47;96899.97;;;32.06;50.19
41703;BME280;861;48.808;9.006;2023-06-22T10:35:14;96894.09;;;32.04;51.85
41703;BME280;861;48.808;9.006;2023-06-22T10:37:46;96888.31;;;32.15;52.15
41703;BME280;861;48.808;9.006;2023-06-22T10:40:17;96892.34;;;32.57;52.09
41703;BME280;861;48.808;9.006;2023-06-22T10:42:45;96891.41;;;32.67;51.01
41703;BME280;861;48.808;9.006;2023-06-22T10:45:12;96887.75;;;32.72;51.05
41703;BME280;861;48.808;9.006;2023-06-22T10:47:39;96886.47;;;32.55;51.10
41703;BME280;861;48.808;9.006;2023-06-22T10:50:08;96881.84;;;32.39;51.32
41703;BME280;861;48.808;9.006;2023-06-22T10:52:35;96877.94;;;32.42;51.73
41703;BME280;861;48.808;9.006;2023-06-22T10:55:02;96880.28;;;32.56;50.12
41703;BME280;861;48.808;9.006;2023-06-22T10:57:29;96876.56;;;32.48;50.06
41703;BME280;861;48.808;9.006;2023-06-22T10:59:55;96883.56;;;32.60;50.43
41703;BME280;861;48.808;9.006;2023-06-22T11:02:23;96886.34;;;32.79;50.51
41703;BME280;861;48.808;9.006;2023-06-22T11:04:50;96885.34;;;32.77;49.28
41703;BME280;861;48.808;9.006;2023-06-22T11:07:17;96884.44;;;32.87;50.11
41703;BME280;861;48.808;9.006;2023-06-22T11:09:44;96888.47;;;32.92;50.13
41703;BME280;861;48.808;9.006;2023-06-22T11:12:11;96888.78;;;32.88;50.16
41703;BME280;861;48.808;9.006;2023-06-22T11:14:38;96885.56;;;32.97;50.03
41703;BME280;861;48.808;9.006;2023-06-22T11:17:05;96885.06;;;33.12;47.78
41703;BME280;861;48.808;9.006;2023-06-22T11:19:32;96887.16;;;32.93;49.98
41703;BME280;861;48.808;9.006;2023-06-22T11:21:59;96878.09;;;33.13;47.61
41703;BME280;861;48.808;9.006;2023-06-22T11:24:25;96883.31;;;32.77;48.93
41703;BME280;861;48.808;9.006;2023-06-22T11:26:52;96884.91;;;32.41;50.19
41703;BME280;861;48.808;9.006;2023-06-22T11:29:18;96880.53;;;32.03;50.78
41703;BME280;861;48.808;9.006;2023-06-22T11:31:45;96881.44;;;31.92;52.16
41703;BME280;861;48.808;9.006;2023-06-22T11:34:11;96867.13;;;31.90;52.14
41703;BME280;861;48.808;9.006;2023-06-22T11:36:38;96862.94;;;31.97;52.73
41703;BME280;861;48.808;9.006;2023-06-22T11:39:04;96850.75;;;32.07;50.75
41703;BME280;861;48.808;9.006;2023-06-22T11:41:31;96841.28;;;32.42;48.59
41703;BME280;861;48.808;9.006;2023-06-22T11:43:57;96850.75;;;32.07;49.81
41703;BME280;861;48.808;9.006;2023-06-22T11:46:24;96859.19;;;31.89;51.11
41703;BME280;861;48.808;9.006;2023-06-22T11:48:51;96863.50;;;31.71;52.52
41703;BME280;861;48.808;9.006;2023-06-22T11:51:17;96866.56;;;31.49;52.29
41703;BME280;861;48.808;9.006;2023-06-22T11:53:44;96860.28;;;31.38;52.57
41703;BME280;861;48.808;9.006;2023-06-22T11:56:10;96854.28;;;31.22;52.37
41703;BME280;861;48.808;9.006;2023-06-22T11:58:37;96863.28;;;31.21;53.61
41703;BME280;861;48.808;9.006;2023-06-22T12:01:03;96884.72;;;31.24;53.53
41703;BME280;861;48.808;9.006;2023-06-22T12:03:30;96894.25;;;31.15;53.25
41703;BME280;861;48.808;9.006;2023-06-22T12:05:57;96905.34;;;31.08;53.53
41703;BME280;861;48.808;9.006;2023-06-22T12:08:24;96898.75;;;31.00;53.64
41703;BME280;861;48.808;9.006;2023-06-22T12:10:51;96903.66;;;30.99;53.39
41703;BME280;861;48.808;9.006;2023-06-22T12:13:20;96890.00;;;31.09;53.74
41703;BME280;861;48.808;9.006;2023-06-22T12:15:46;96890.44;;;31.18;54.16
41703;BME280;861;48.808;9.006;2023-06-22T12:18:13;96892.19;;;31.21;53.81
41703;BME280;861;48.808;9.006;2023-06-22T12:20:42;96894.78;;;31.14;53.47
41703;BME280;861;48.808;9.006;2023-06-22T12:23:09;96881.56;;;31.09;53.35
41703;BME280;861;48.808;9.006;2023-06-22T12:25:36;96883.84;;;31.10;53.80
41703;BME280;861;48.808;9.006;2023-06-22T12:28:02;96883.31;;;31.12;53.94
41703;BME280;861;48.808;9.006;2023-06-22T12:30:32;96891.44;;;31.15;54.02
41703;BME280;861;48.808;9.006;2023-06-22T12:32:59;96873.59;;;31.13;54.09
41703;BME280;861;48.808;9.006;2023-06-22T12:35:25;96887.09;;;31.20;54.75
41703;BME280;861;48.808;9.006;2023-06-22T12:37:52;96897.50;;;31.25;53.96
41703;BME280;861;48.808;9.006;2023-06-22T12:40:19;96895.91;;;31.35;53.83
41703;BME280;861;48.808;9.006;2023-06-22T12:42:46;96889.22;;;31.38;53.53
41703;BME280;861;48.808;9.006;2023-06-22T12:45:13;96883.75;;;31.46;53.61
41703;BME280;861;48.808;9.006;2023-06-22T12:47:39;96888.81;;;31.53;54.19
41703;BME280;861;48.808;9.006;2023-06-22T12:50:06;96886.44;;;31.57;53.72
41703;BME280;861;48.808;9.006;2023-06-22T12:52:36;96881.66;;;31.52;53.36
41703;BME280;861;48.808;9.006;2023-06-22T12:55:05;96887.88;;;31.45;53.73
41703;BME280;861;48.808;9.006;2023-06-22T12:57:33;96889.81;;;31.31;54.08
41703;BME280;861;48.808;9.006;2023-06-22T12:59:59;96893.94;;;31.24;54.19
41703;BME280;861;48.808;9.006;2023-06-22T13:02:27;96895.84;;;31.11;54.58
41703;BME280;861;48.808;9.006;2023-06-22T13:04:54;96898.34;;;30.90;54.58
41703;BME280;861;48.808;9.006;2023-06-22T13:07:20;96897.94;;;30.75;54.96
41703;BME280;861;48.808;9.006;2023-06-22T13:09:47;96906.63;;;30.72;54.84
41703;BME280;861;48.808;9.006;2023-06-22T13:12:17;96912.34;;;30.61;55.31
41703;BME280;861;48.808;9.006;2023-06-22T13:14:44;96901.44;;;30.52;56.05
41703;BME280;861;48.808;9.006;2023-06-22T13:17:12;96897.53;;;30.60;56.38
41703;BME280;861;48.808;9.006;2023-06-22T13:19:40;96900.75;;;30.75;56.47
41703;BME280;861;48.808;9.006;2023-06-22T13:22:30;96878.53;;;30.77;55.74
41703;BME280;861;48.808;9.006;2023-06-22T13:25:07;96872.72;;;30.64;55.54
41703;BME280;861;48.808;9.006;2023-06-22T13:27:41;96865.84;;;30.60;56.35
41703;BME280;861;48.808;9.006;2023-06-22T13:30:09;96862.22;;;30.65;58.45